Startpagina
METAR-TAF:

METAR-TAF

Vliegvelden :

Luchthaven Schiphol

Amsterdam, Nederland

breedte: 52-18N, lengte: 004-46E, hoogte: -4 m

Actueel weer

Dit bericht is 27 minuten geleden gemaakt, om 19:55 UTC
Wind 16 kt uit het oostnoordoosten, variërend tussen het noordnoordoosten en het oosten
Temperatuur 5°C
Vochtigheid 75%
Druk 1018 hPa
Zicht 10 km of meer
Weinig wolken op 3000 ft

METAR: EHAM 191955Z 06016KT 030V090 9999 FEW030 05/01 Q1018 NOSIG

Tijdstip: 21:22 (20:22 UTC)

Verwachting

Dit bericht is 3 uur en het 11 minuten geleden gemaakt, om 17:11 UTC
Verwachting geldig van 19 om 18 UTC tot 20 om 24 UTC
Wind 18 kt uit het oosten
Zicht 10 km of meer
Verspreide wolken op 2200 ft
Verspreide wolken op 4000 ft
Tijdelijke
van 20 om 08 UTC tot 20 om 16 UTC
Wind 20 kt uit het oosten met uitschieters tot 32 kt
Wijzigt naar
van 20 om 16 UTC tot 20 om 18 UTC
Wind 15 kt uit het oosten

TAF: EHAM 191711Z 1918/2024 08018KT 9999 SCT022 SCT040 TEMPO 2008/2016 09020G32KT BECMG 2016/2018 09015KT

Waarnemingen en weersverwachtingen van meer dan 4000 vliegvelden (METAR en TAF).

De beschikbare stations zijn de gele en rode punten op de kaart.

Ga met uw muis naar het station om de naam te zien.

Klik dan om waarnemingen en weersverwachtingen te zien.

kaart wijzigen: klik op de groene knoppen met een zwart kruis om in te zoomen, op de groene knop met een streepje om uit te zoomen of op de groene pijlen voor aangrenzende kaarten.


METAR-TAF: